Time;durP1;ratioP1;P1;durP2;ratioP2;P2;SDS_P1;SDS_P2;PMS_P1;PMS_P2;Temp;Humidity;BMP_temperature;BMP_pressure;BME280_temperature;BME280_humidity;BME280_pressure;Samples;Min_cycle;Max_cycle;Signal;HPM_P1;HPM_P2
2022/12/18 00:02:21;;;;;;;0.65;0.65;;;;;;;1.51;89.08;101089.41;5086914;28;20031;-65
2022/12/18 00:04:47;;;;;;;0.98;0.98;;;;;;;1.47;89.14;101091.00;5087162;28;20020;-65
2022/12/18 00:07:12;;;;;;;0.52;0.52;;;;;;;1.50;88.96;101078.31;5086903;28;20035;-65
2022/12/18 00:09:38;;;;;;;3.40;3.15;;;;;;;1.42;89.23;101080.56;5086922;28;20066;-65
2022/12/18 00:12:03;;;;;;;0.55;0.55;;;;;;;1.44;89.27;101084.06;5086673;28;20059;-65
2022/12/18 00:14:29;;;;;;;0.50;0.50;;;;;;;1.44;89.45;101076.38;5086788;28;20400;-65
2022/12/18 00:16:54;;;;;;;1.23;1.17;;;;;;;1.45;89.35;101075.56;5085410;28;20024;-64
2022/12/18 00:19:20;;;;;;;1.98;1.88;;;;;;;1.37;89.48;101084.63;5086477;28;20017;-64
2022/12/18 00:21:45;;;;;;;1.05;1.05;;;;;;;1.31;89.52;101081.81;5086545;28;20171;-66
2022/12/18 00:24:11;;;;;;;1.75;1.63;;;;;;;1.25;89.72;101074.75;5086417;28;20063;-68
2022/12/18 00:26:38;;;;;;;0.63;0.63;;;;;;;1.32;89.51;101076.78;5086181;28;20544;-69
2022/12/18 00:29:14;;;;;;;0.60;0.60;;;;;;;1.22;89.82;101074.63;5086499;28;20294;-66
2022/12/18 00:31:42;;;;;;;1.13;1.13;;;;;;;1.18;89.91;101078.75;5086307;28;20024;-66
2022/12/18 00:34:10;;;;;;;0.90;0.90;;;;;;;1.11;89.97;101066.53;5086406;28;20028;-66
2022/12/18 00:36:35;;;;;;;0.50;0.50;;;;;;;1.18;89.15;101075.34;5086177;28;20032;-66
2022/12/18 00:39:03;;;;;;;0.63;0.63;;;;;;;0.99;89.64;101077.13;5086366;28;20024;-65
2022/12/18 00:44:15;;;;;;;0.50;0.50;;;;;;;0.74;89.94;101074.41;5086473;28;20063;-65
2022/12/18 00:46:41;;;;;;;0.50;0.50;;;;;;;0.66;90.31;101078.31;5085864;28;20036;-65
2022/12/18 00:49:07;;;;;;;0.60;0.60;;;;;;;0.50;90.67;101056.31;5086310;28;20039;-66
2022/12/18 00:51:32;;;;;;;0.60;0.60;;;;;;;0.62;90.70;101066.22;5085962;28;20017;-64
2022/12/18 00:53:58;;;;;;;3.80;3.05;;;;;;;0.57;91.24;101072.81;5086103;28;20024;-65
2022/12/18 00:56:23;;;;;;;0.60;0.60;;;;;;;0.56;91.08;101074.47;5084945;28;20302;-64
2022/12/18 00:58:49;;;;;;;0.57;0.57;;;;;;;0.56;91.58;101077.03;5084739;28;20039;-64
2022/12/18 01:01:15;;;;;;;0.60;0.60;;;;;;;0.59;91.75;101068.66;5085634;28;20021;-65
2022/12/18 01:03:40;;;;;;;0.52;0.52;;;;;;;0.57;91.69;101070.25;5086030;28;20131;-65
2022/12/18 01:06:11;;;;;;;0.98;0.98;;;;;;;0.61;91.75;101067.00;5085687;28;20421;-64
2022/12/18 01:08:37;;;;;;;0.52;0.52;;;;;;;0.59;92.26;101066.94;5084203;28;20025;-64
2022/12/18 01:11:20;;;;;;;0.82;0.80;;;;;;;0.59;92.18;101068.66;5084196;28;20028;-63
2022/12/18 01:13:46;;;;;;;0.60;0.60;;;;;;;0.59;92.10;101066.94;5085851;28;20052;-64
2022/12/18 01:16:13;;;;;;;0.73;0.73;;;;;;;0.55;92.49;101079.53;5085558;28;20027;-64
2022/12/18 01:18:38;;;;;;;0.60;0.60;;;;;;;0.55;92.47;101070.19;5085819;28;20020;-63
2022/12/18 01:21:08;;;;;;;0.60;0.60;;;;;;;0.59;92.55;101086.53;5085509;28;20032;-64
2022/12/18 01:23:34;;;;;;;1.65;1.55;;;;;;;0.50;92.63;101066.53;5085333;28;20102;-64
2022/12/18 01:26:08;;;;;;;0.60;0.60;;;;;;;0.57;92.75;101085.56;5085274;28;20024;-63
2022/12/18 01:28:33;;;;;;;0.70;0.70;;;;;;;0.56;92.89;101089.81;5085511;28;20028;-64
2022/12/18 01:31:11;;;;;;;1.95;1.85;;;;;;;0.56;92.91;101086.41;5085450;28;20024;-64
2022/12/18 01:33:37;;;;;;;0.50;0.50;;;;;;;0.60;92.67;101093.38;5085598;28;20060;-64
2022/12/18 01:36:02;;;;;;;0.60;0.60;;;;;;;0.57;92.76;101090.69;5085409;28;20090;-63
2022/12/18 01:38:28;;;;;;;0.50;0.50;;;;;;;0.54;92.65;101093.13;5085526;28;20022;-64
2022/12/18 01:40:58;;;;;;;0.93;0.93;;;;;;;0.49;93.08;101087.81;5085176;28;20025;-64
2022/12/18 01:43:45;;;;;;;0.60;0.60;;;;;;;0.49;93.14;101083.56;5085425;28;20025;-64
2022/12/18 01:46:10;;;;;;;0.50;0.50;;;;;;;0.50;93.09;101076.75;5085356;28;20025;-65
2022/12/18 01:48:36;;;;;;;1.55;1.50;;;;;;;0.47;93.31;101080.06;5085513;28;20021;-63
2022/12/18 01:51:02;;;;;;;0.63;0.63;;;;;;;0.44;93.77;101081.59;5085396;28;20372;-63
2022/12/18 01:53:28;;;;;;;0.50;0.50;;;;;;;0.47;93.63;101066.41;5085441;28;20028;-64
2022/12/18 01:55:57;;;;;;;0.50;0.50;;;;;;;0.52;93.63;101064.06;5085058;28;20050;-64
2022/12/18 01:59:01;;;;;;;1.20;1.17;;;;;;;0.48;93.93;101068.16;5085242;28;20021;-64
2022/12/18 02:01:29;;;;;;;0.90;0.90;;;;;;;0.47;94.07;101058.75;5084536;28;20348;-64
2022/12/18 02:03:55;;;;;;;0.85;0.77;;;;;;;0.46;94.04;101057.00;5085193;28;20076;-63
2022/12/18 02:06:26;;;;;;;0.85;0.85;;;;;;;0.49;94.14;101052.91;5085476;28;20035;-63
2022/12/18 02:09:15;;;;;;;0.60;0.60;;;;;;;0.45;94.34;101063.78;5089165;28;20031;-64
2022/12/18 02:12:04;;;;;;;0.68;0.68;;;;;;;0.48;94.53;101053.69;5088927;28;20054;-63
2022/12/18 02:14:43;;;;;;;0.55;0.55;;;;;;;0.54;94.85;101062.44;5089122;28;20433;-64
2022/12/18 02:17:19;;;;;;;0.60;0.60;;;;;;;0.62;95.13;101053.44;5089049;28;20020;-65
2022/12/18 02:20:07;;;;;;;0.60;0.60;;;;;;;0.71;95.05;101060.63;5088941;28;20080;-64
2022/12/18 02:22:41;;;;;;;0.95;0.95;;;;;;;0.74;95.45;101050.50;5088656;28;20053;-63
2022/12/18 02:25:47;;;;;;;1.95;1.85;;;;;;;0.82;95.67;101059.38;5089033;28;20048;-65
2022/12/18 02:28:17;;;;;;;1.58;1.50;;;;;;;0.87;95.94;101046.81;5088668;28;20103;-64
2022/12/18 02:30:45;;;;;;;0.60;0.60;;;;;;;0.97;96.05;101042.94;5088559;28;20062;-64
2022/12/18 02:33:12;;;;;;;5.18;2.03;;;;;;;1.02;96.21;101040.56;5088770;28;20086;-64
2022/12/18 02:35:40;;;;;;;0.98;0.98;;;;;;;1.09;96.43;101047.69;5088484;28;20092;-63
2022/12/18 02:38:06;;;;;;;1.30;1.30;;;;;;;1.13;96.54;101049.56;5087268;28;20066;-64
2022/12/18 02:40:31;;;;;;;2.45;2.35;;;;;;;1.14;96.39;101056.41;5088225;28;20108;-65
2022/12/18 02:43:08;;;;;;;0.60;0.60;;;;;;;1.17;96.45;101056.53;5088635;28;20060;-66
2022/12/18 02:45:33;;;;;;;2.25;2.15;;;;;;;1.22;96.35;101049.94;5088303;28;20032;-65
2022/12/18 02:47:59;;;;;;;0.55;0.55;;;;;;;1.19;96.42;101044.69;5088285;28;20036;-64
2022/12/18 02:50:37;;;;;;;0.63;0.63;;;;;;;1.29;96.46;101051.06;5088291;28;20032;-65
2022/12/18 02:53:33;;;;;;;0.60;0.60;;;;;;;1.31;96.43;101051.13;5088340;28;20054;-65
2022/12/18 02:56:19;;;;;;;0.68;0.68;;;;;;;1.30;96.42;101065.59;5088077;28;20024;-65
2022/12/18 02:58:48;;;;;;;0.50;0.50;;;;;;;1.32;96.49;101053.75;5088230;28;20017;-64
2022/12/18 03:01:38;;;;;;;0.60;0.60;;;;;;;1.29;96.64;101040.84;5087836;28;20046;-65
2022/12/18 03:04:28;;;;;;;2.47;1.55;;;;;;;1.36;96.52;101072.63;5088249;28;20024;-65
2022/12/18 03:06:57;;;;;;;0.60;0.60;;;;;;;1.37;96.69;101059.03;5083711;28;20036;-64
2022/12/18 03:09:31;;;;;;;0.60;0.60;;;;;;;1.38;96.74;101053.09;5088209;28;20040;-65
2022/12/18 03:12:22;;;;;;;0.88;0.88;;;;;;;1.41;96.75;101052.34;5087623;28;20024;-65
2022/12/18 03:14:54;;;;;;;0.50;0.50;;;;;;;1.39;96.55;101051.44;5088151;28;20024;-65
2022/12/18 03:17:23;;;;;;;0.50;0.50;;;;;;;1.44;96.73;101063.59;5087843;28;20032;-64
2022/12/18 03:19:50;;;;;;;1.23;1.23;;;;;;;1.42;96.64;101060.06;5087019;28;20029;-65
2022/12/18 03:22:16;;;;;;;0.70;0.70;;;;;;;1.44;96.68;101065.25;5087580;28;20078;-65
2022/12/18 03:24:42;;;;;;;0.52;0.52;;;;;;;1.46;96.81;101061.97;5086633;28;20047;-64
2022/12/18 03:27:14;;;;;;;0.50;0.50;;;;;;;1.48;96.62;101060.34;5087406;28;20020;-65
2022/12/18 03:29:52;;;;;;;0.80;0.80;;;;;;;1.46;96.43;101054.28;5087755;28;20028;-65
2022/12/18 03:32:30;;;;;;;0.70;0.70;;;;;;;1.46;96.71;101061.09;5087492;28;20107;-64
2022/12/18 03:34:59;;;;;;;2.25;2.15;;;;;;;1.47;96.49;101060.28;5087699;28;20023;-65
2022/12/18 03:37:25;;;;;;;0.60;0.60;;;;;;;1.46;96.44;101063.66;5087465;28;20300;-65
2022/12/18 03:39:50;;;;;;;0.50;0.50;;;;;;;1.46;96.32;101054.28;5087478;28;20063;-65
2022/12/18 03:42:31;;;;;;;0.88;0.88;;;;;;;1.48;96.53;101041.56;5087186;28;20017;-65
2022/12/18 03:45:12;;;;;;;0.60;0.60;;;;;;;1.46;96.33;101032.94;5087568;28;20035;-65
2022/12/18 03:48:04;;;;;;;0.50;0.50;;;;;;;1.45;96.53;101062.75;5087207;28;20048;-64
2022/12/18 03:50:41;;;;;;;1.67;1.55;;;;;;;1.45;96.43;101062.75;5084193;28;20043;-64
2022/12/18 03:53:36;;;;;;;0.80;0.80;;;;;;;1.45;96.58;101065.31;5087104;28;20028;-65
2022/12/18 03:56:04;;;;;;;0.50;0.50;;;;;;;1.48;96.33;101062.03;5085761;28;20045;-64
2022/12/18 03:58:33;;;;;;;0.90;0.90;;;;;;;1.47;96.49;101068.81;5087104;28;20036;-64
2022/12/18 04:01:02;;;;;;;0.70;0.70;;;;;;;1.49;96.40;101058.66;5086814;28;20050;-64
2022/12/18 04:03:31;;;;;;;0.60;0.60;;;;;;;1.50;96.43;101062.09;5087331;28;20077;-64
2022/12/18 04:05:59;;;;;;;0.50;0.50;;;;;;;1.48;96.73;101062.91;5086783;28;20031;-65
2022/12/18 04:08:25;;;;;;;0.93;0.93;;;;;;;1.53;96.37;101065.66;5086906;28;20051;-63
2022/12/18 04:10:51;;;;;;;0.50;0.50;;;;;;;1.52;96.43;101058.75;5086395;28;20032;-64
2022/12/18 04:13:43;;;;;;;2.10;2.00;;;;;;;1.51;96.52;101076.63;5086775;28;20074;-64
2022/12/18 04:16:09;;;;;;;;;;;;;;;1.55;96.42;101076.78;5083874;28;20066;-63
2022/12/18 04:18:35;;;;;;;0.50;0.50;;;;;;;1.54;96.27;101077.63;5086743;28;19963;-65
2022/12/18 04:21:01;;;;;;;0.60;0.60;;;;;;;1.51;96.38;101074.06;5086518;28;20028;-64
2022/12/18 04:23:26;;;;;;;0.50;0.50;;;;;;;1.42;96.51;101062.63;5086485;28;20064;-65
2022/12/18 04:25:51;;;;;;;5.15;4.80;;;;;;;1.51;96.40;101076.63;5086304;28;20044;-65
2022/12/18 04:28:17;;;;;;;0.60;0.60;;;;;;;1.52;96.45;101068.16;5086512;28;20428;-65
2022/12/18 04:30:42;;;;;;;0.55;0.55;;;;;;;1.53;96.40;101082.69;5086436;28;20488;-64
2022/12/18 04:33:09;;;;;;;0.50;0.50;;;;;;;1.52;96.43;101079.25;5086295;28;20033;-65
2022/12/18 04:35:35;;;;;;;0.52;0.52;;;;;;;1.53;96.34;101078.44;5086259;28;20028;-65
2022/12/18 04:38:00;;;;;;;0.60;0.60;;;;;;;1.52;96.46;101080.94;5084985;28;20027;-65
2022/12/18 04:40:26;;;;;;;0.70;0.70;;;;;;;1.52;96.46;101088.63;5086222;28;20028;-65
2022/12/18 04:42:51;;;;;;;0.50;0.50;;;;;;;1.53;96.35;101088.69;5086046;28;20024;-64
2022/12/18 04:45:17;;;;;;;0.50;0.50;;;;;;;1.54;96.32;101085.31;5086189;28;20028;-64
2022/12/18 04:47:42;;;;;;;0.50;0.50;;;;;;;1.55;96.28;101078.50;5086048;28;20029;-64
2022/12/18 04:50:08;;;;;;;0.60;0.60;;;;;;;1.53;96.16;101077.56;5086057;28;20052;-64
2022/12/18 04:52:33;;;;;;;0.55;0.55;;;;;;;1.50;96.06;101067.22;5086002;28;20028;-65
2022/12/18 04:54:59;;;;;;;0.50;0.50;;;;;;;1.48;96.22;101069.69;5086181;28;20029;-65
2022/12/18 04:57:24;;;;;;;0.82;0.82;;;;;;;1.52;96.24;101079.25;5085801;28;20020;-65
2022/12/18 04:59:49;;;;;;;3.47;3.25;;;;;;;1.53;96.45;101085.25;5086054;28;20465;-64
2022/12/18 05:02:15;;;;;;;0.50;0.50;;;;;;;1.57;96.36;101081.97;5085524;28;20468;-64
2022/12/18 05:04:40;;;;;;;0.50;0.50;;;;;;;1.56;96.42;101085.38;5086103;28;20024;-65
2022/12/18 05:07:06;;;;;;;0.50;0.50;;;;;;;1.59;96.46;101100.84;5085818;28;20097;-65
2022/12/18 05:09:31;;;;;;;0.50;0.50;;;;;;;1.57;96.40;101087.09;5085858;28;20039;-65
2022/12/18 05:11:56;;;;;;;0.50;0.50;;;;;;;1.63;96.45;101089.91;5085467;28;20039;-65
2022/12/18 05:14:22;;;;;;;0.50;0.50;;;;;;;1.41;96.18;101055.78;5085700;28;20032;-64
2022/12/18 05:16:48;;;;;;;1.25;1.25;;;;;;;1.66;96.49;101087.44;5085683;28;20032;-65
2022/12/18 05:19:13;;;;;;;1.20;0.88;;;;;;;1.71;96.50;101085.09;5085703;28;20028;-65
2022/12/18 05:21:38;;;;;;;0.40;0.40;;;;;;;1.71;96.47;101091.06;5085557;28;20074;-65
2022/12/18 05:24:04;;;;;;;0.50;0.50;;;;;;;1.72;96.45;101082.59;5084297;28;20048;-65
2022/12/18 05:26:30;;;;;;;0.50;0.50;;;;;;;1.75;96.42;101084.41;5085475;28;20029;-65
2022/12/18 05:28:58;;;;;;;0.50;0.50;;;;;;;1.79;96.49;101095.63;5085593;28;20083;-66
2022/12/18 05:31:23;;;;;;;1.20;1.08;;;;;;;1.79;96.36;101078.56;5085553;28;20028;-67
2022/12/18 05:33:48;;;;;;;0.65;0.65;;;;;;;1.82;96.47;101090.63;5085626;28;20514;-66
2022/12/18 05:36:14;;;;;;;0.65;0.65;;;;;;;1.82;96.44;101086.38;5085541;28;20029;-66
2022/12/18 05:38:39;;;;;;;1.65;1.55;;;;;;;1.85;96.35;101094.16;5085563;28;20017;-65
2022/12/18 05:41:06;;;;;;;0.93;0.93;;;;;;;1.85;96.50;101096.72;5084856;28;20020;-69
2022/12/18 05:43:34;;;;;;;0.50;0.50;;;;;;;1.85;96.59;101098.44;5085445;28;20033;-66
2022/12/18 05:46:04;;;;;;;0.50;0.50;;;;;;;1.84;96.53;101096.66;5085391;28;20029;-66
2022/12/18 05:48:30;;;;;;;0.50;0.50;;;;;;;1.89;96.58;101107.09;5085474;28;20024;-66
2022/12/18 05:50:55;;;;;;;1.50;1.40;;;;;;;1.89;96.70;101110.53;5085367;28;20053;-66
2022/12/18 05:53:20;;;;;;;0.50;0.50;;;;;;;1.96;96.70;101112.53;5085294;28;20035;-67
2022/12/18 05:55:47;;;;;;;0.50;0.50;;;;;;;1.89;96.12;101105.41;5085084;28;20025;-67
2022/12/18 05:58:13;;;;;;;0.88;0.88;;;;;;;1.86;95.98;101097.59;5085394;28;20099;-66
2022/12/18 06:00:41;;;;;;;0.50;0.50;;;;;;;1.82;96.13;101086.38;5085175;28;20028;-67
2022/12/18 06:03:07;;;;;;;0.50;0.50;;;;;;;1.82;96.14;101091.50;5085086;28;20529;-67
2022/12/18 06:05:37;;;;;;;0.40;0.40;;;;;;;1.79;96.00;101093.09;5085327;28;20039;-67
2022/12/18 06:08:02;;;;;;;0.40;0.40;;;;;;;1.81;95.97;101106.78;5083864;28;20036;-68
2022/12/18 06:10:28;;;;;;;0.50;0.50;;;;;;;1.81;96.06;101101.66;5085236;28;20035;-67
2022/12/18 06:12:53;;;;;;;0.90;0.90;;;;;;;1.84;95.96;101094.09;5084993;28;20031;-68
2022/12/18 06:15:18;;;;;;;0.47;0.47;;;;;;;1.83;95.90;101105.19;5085397;28;20367;-69
2022/12/18 06:17:44;;;;;;;0.70;0.70;;;;;;;1.83;95.90;101115.41;5083735;28;20028;-67
2022/12/18 06:20:09;;;;;;;0.50;0.50;;;;;;;1.83;96.08;101116.31;5083599;28;20017;-67
2022/12/18 06:22:35;;;;;;;0.43;0.43;;;;;;;1.95;96.04;101118.44;5084839;28;20511;-68
2022/12/18 06:25:00;;;;;;;0.50;0.50;;;;;;;1.90;96.00;101112.28;5085233;28;20028;-67
2022/12/18 06:27:26;;;;;;;0.50;0.50;;;;;;;1.93;95.90;101114.94;5084769;28;20120;-68
2022/12/18 06:29:51;;;;;;;0.60;0.60;;;;;;;1.91;95.82;101121.72;5085008;28;20025;-68
2022/12/18 06:32:17;;;;;;;4.00;3.70;;;;;;;1.94;95.76;101114.16;5084609;28;20024;-68
2022/12/18 06:34:42;;;;;;;0.50;0.50;;;;;;;1.92;95.68;101114.88;5084978;28;20025;-68
2022/12/18 06:37:07;;;;;;;0.63;0.63;;;;;;;1.94;95.63;101124.41;5084957;28;20084;-68
2022/12/18 06:39:33;;;;;;;0.50;0.50;;;;;;;1.92;95.72;101120.00;5083610;28;20032;-68
2022/12/18 06:41:58;;;;;;;0.50;0.50;;;;;;;1.92;95.68;101126.00;5084575;28;20047;-68
2022/12/18 06:44:24;;;;;;;0.50;0.50;;;;;;;1.94;95.59;101126.97;5084829;28;20074;-68
2022/12/18 06:46:49;;;;;;;0.50;0.50;;;;;;;1.96;95.58;101116.78;5084683;28;20066;-68
2022/12/18 06:49:15;;;;;;;0.50;0.50;;;;;;;1.93;95.60;101116.66;5084825;28;20055;-68
2022/12/18 06:51:41;;;;;;;0.50;0.50;;;;;;;1.94;95.70;101108.16;5084811;28;20024;-68
2022/12/18 06:54:07;;;;;;;0.50;0.50;;;;;;;1.97;95.51;101127.06;5086198;28;20104;-69
2022/12/18 06:56:32;;;;;;;0.50;0.50;;;;;;;1.94;95.17;101129.53;5087920;28;20090;-68
2022/12/18 06:59:01;;;;;;;0.50;0.50;;;;;;;1.96;95.50;101133.03;5088398;28;20016;-66
2022/12/18 07:01:26;;;;;;;0.50;0.50;;;;;;;1.94;95.74;101131.19;5087982;28;20031;-67
2022/12/18 07:03:54;;;;;;;0.50;0.50;;;;;;;1.99;95.67;101134.81;5088295;28;20048;-67
2022/12/18 07:06:21;;;;;;;0.50;0.50;;;;;;;1.93;95.63;101130.31;5088007;28;20028;-66
2022/12/18 07:08:48;;;;;;;0.55;0.55;;;;;;;1.97;95.57;101146.69;5088026;28;20055;-66
2022/12/18 07:11:13;;;;;;;0.50;0.50;;;;;;;1.96;95.76;101135.59;5087762;28;20103;-66
2022/12/18 07:13:39;;;;;;;0.70;0.70;;;;;;;2.01;95.71;101127.19;5087875;28;20024;-66
2022/12/18 07:16:06;;;;;;;0.50;0.50;;;;;;;2.03;95.69;101151.19;5087985;28;20020;-66
2022/12/18 07:18:32;;;;;;;1.33;1.30;;;;;;;2.03;95.71;101148.63;5087902;28;20042;-66
2022/12/18 07:20:57;;;;;;;0.63;0.63;;;;;;;2.03;95.68;101157.16;5087758;28;20020;-66
2022/12/18 07:23:23;;;;;;;0.50;0.50;;;;;;;2.04;95.64;101163.16;5087548;28;20036;-66
2022/12/18 07:25:48;;;;;;;0.50;0.50;;;;;;;2.07;95.64;101166.72;5087445;28;20029;-66
2022/12/18 07:28:14;;;;;;;0.63;0.63;;;;;;;2.06;95.55;101161.56;5087619;28;20028;-66
2022/12/18 07:30:40;;;;;;;0.50;0.50;;;;;;;2.09;95.62;101167.63;5087480;28;20024;-65
2022/12/18 07:33:05;;;;;;;0.50;0.50;;;;;;;2.11;95.53;101165.13;5086143;28;20081;-66
2022/12/18 07:35:32;;;;;;;0.50;0.50;;;;;;;2.14;95.71;101172.09;5087705;28;20032;-67
2022/12/18 07:37:57;;;;;;;0.50;0.50;;;;;;;2.15;95.72;101171.25;5087469;28;20028;-66
2022/12/18 07:40:22;;;;;;;0.50;0.50;;;;;;;2.16;95.80;101178.13;5087461;28;20406;-66
2022/12/18 07:42:48;;;;;;;0.50;0.50;;;;;;;2.18;95.67;101169.69;5087232;28;20029;-66
2022/12/18 07:45:13;;;;;;;0.50;0.50;;;;;;;2.16;95.67;101168.75;5087506;28;20040;-65
2022/12/18 07:47:41;;;;;;;0.50;0.50;;;;;;;2.16;95.84;101175.56;5087239;28;20024;-65
2022/12/18 07:50:06;;;;;;;0.50;0.50;;;;;;;2.10;95.79;101164.28;5087483;28;20028;-65
2022/12/18 07:52:32;;;;;;;0.50;0.50;;;;;;;2.21;96.00;101174.94;5087121;28;20025;-65
2022/12/18 07:54:57;;;;;;;0.50;0.50;;;;;;;2.22;95.82;101174.13;5087214;28;20020;-65
2022/12/18 07:57:23;;;;;;;0.50;0.50;;;;;;;2.23;95.65;101185.25;5086965;28;20036;-66
2022/12/18 07:59:48;;;;;;;0.60;0.60;;;;;;;2.25;95.55;101182.75;5087225;28;20024;-64
2022/12/18 08:02:14;;;;;;;0.60;0.60;;;;;;;2.28;95.70;101180.31;5086913;28;20020;-65
2022/12/18 08:04:39;;;;;;;0.50;0.50;;;;;;;2.29;95.64;101189.72;5086761;28;20048;-66
2022/12/18 08:07:05;;;;;;;0.50;0.50;;;;;;;2.31;95.50;101185.53;5086854;28;20025;-66
2022/12/18 08:09:31;;;;;;;0.50;0.50;;;;;;;2.27;95.46;101196.50;5086952;28;20031;-66
2022/12/18 08:11:56;;;;;;;0.50;0.50;;;;;;;2.27;95.61;101210.16;5086509;28;20058;-65
2022/12/18 08:14:22;;;;;;;0.50;0.50;;;;;;;2.26;95.53;101215.22;5086891;28;20017;-65
2022/12/18 08:16:48;;;;;;;0.60;0.60;;;;;;;2.29;95.56;101208.53;5086603;28;20025;-65
2022/12/18 08:19:13;;;;;;;0.50;0.50;;;;;;;2.30;95.29;101212.00;5086759;28;20087;-65
2022/12/18 08:21:41;;;;;;;0.50;0.50;;;;;;;2.29;95.32;101223.03;5086569;28;20044;-66
2022/12/18 08:24:08;;;;;;;0.50;0.50;;;;;;;2.25;95.48;101218.63;5086413;28;20044;-66
2022/12/18 08:26:33;;;;;;;0.50;0.50;;;;;;;2.33;95.40;101230.03;5086319;28;20050;-66
2022/12/18 08:28:59;;;;;;;0.50;0.50;;;;;;;2.34;95.33;101237.78;5085192;28;20028;-66
2022/12/18 08:31:26;;;;;;;0.50;0.50;;;;;;;2.30;95.41;101230.78;5086153;28;20017;-66
2022/12/18 08:33:53;;;;;;;0.60;0.60;;;;;;;2.39;95.58;101237.97;5086584;28;20080;-67
2022/12/18 08:36:19;;;;;;;0.50;0.50;;;;;;;2.42;95.46;101234.63;5086256;28;20032;-66
2022/12/18 08:38:45;;;;;;;0.50;0.50;;;;;;;2.45;95.41;101250.13;5086115;28;20029;-66
2022/12/18 08:41:13;;;;;;;2.08;1.98;;;;;;;2.48;95.59;101251.13;5085923;28;20088;-66
2022/12/18 08:46:25;;;;;;;1.00;1.00;;;;;;;2.49;95.34;101257.16;5086197;28;20506;-66
2022/12/18 08:48:51;;;;;;;0.50;0.50;;;;;;;2.47;95.10;101257.09;5086096;28;20438;-66
2022/12/18 08:51:17;;;;;;;0.50;0.50;;;;;;;2.42;95.19;101245.78;5085866;28;20027;-66
2022/12/18 08:53:42;;;;;;;1.48;1.45;;;;;;;2.46;95.28;101268.13;5086180;28;20036;-66
2022/12/18 08:56:08;;;;;;;0.50;0.50;;;;;;;2.45;95.24;101271.53;5085773;28;20046;-66
2022/12/18 08:58:33;;;;;;;0.70;0.70;;;;;;;2.44;95.26;101280.03;5085814;28;20036;-66
2022/12/18 09:01:07;;;;;;;0.50;0.50;;;;;;;2.41;95.14;101267.06;5085953;28;20459;-66
2022/12/18 09:03:33;;;;;;;0.50;0.50;;;;;;;2.50;95.39;101288.75;5085556;28;20114;-66
2022/12/18 09:05:59;;;;;;;0.50;0.50;;;;;;;2.48;95.18;101289.59;5085712;28;20116;-66
2022/12/18 09:08:25;;;;;;;0.50;0.50;;;;;;;2.48;95.20;101294.72;5085739;28;20059;-67
2022/12/18 09:10:51;;;;;;;0.50;0.50;;;;;;;2.48;95.11;101299.84;5085445;28;20050;-66
2022/12/18 09:13:18;;;;;;;0.75;0.75;;;;;;;2.51;95.29;101290.53;5085702;28;20021;-66
2022/12/18 09:15:49;;;;;;;0.50;0.50;;;;;;;2.51;95.12;101296.50;5085608;28;20024;-67
2022/12/18 09:18:16;;;;;;;0.50;0.50;;;;;;;2.46;94.73;101286.09;5085308;28;20040;-67
2022/12/18 09:20:41;;;;;;;0.50;0.50;;;;;;;2.50;94.87;101299.00;5085637;28;20447;-67
2022/12/18 09:23:07;;;;;;;0.50;0.50;;;;;;;2.50;94.64;101291.31;5085185;28;20044;-68
2022/12/18 09:25:35;;;;;;;0.50;0.50;;;;;;;2.51;94.82;101293.09;5085588;28;20031;-68
2022/12/18 09:28:02;;;;;;;0.63;0.63;;;;;;;2.51;94.71;101285.41;5085126;28;20035;-68
2022/12/18 09:30:28;;;;;;;0.50;0.50;;;;;;;2.51;94.87;101285.41;5085440;28;20036;-67
2022/12/18 09:32:53;;;;;;;0.50;0.50;;;;;;;2.51;94.58;101288.81;5085179;28;20021;-68
2022/12/18 09:35:19;;;;;;;0.55;0.55;;;;;;;2.46;94.57;101290.34;5085446;28;20076;-68
2022/12/18 09:37:44;;;;;;;0.50;0.50;;;;;;;2.51;94.60;101298.22;5085289;28;20041;-69
2022/12/18 09:40:16;;;;;;;0.50;0.50;;;;;;;2.50;94.60;101297.34;5085510;28;20028;-67
2022/12/18 09:42:48;;;;;;;0.60;0.60;;;;;;;2.52;94.47;101310.22;5085176;28;20020;-69
2022/12/18 09:45:15;;;;;;;3.00;2.72;;;;;;;2.55;94.45;101307.78;5085638;28;20063;-69
2022/12/18 09:47:42;;;;;;;0.50;0.50;;;;;;;2.49;94.50;101295.59;5085290;28;20025;-69
2022/12/18 09:50:30;;;;;;;0.50;0.50;;;;;;;2.55;94.16;101295.84;5084175;28;20031;-69
2022/12/18 09:52:59;;;;;;;0.50;0.50;;;;;;;2.56;94.24;101292.44;5085227;28;20016;-70
2022/12/18 09:55:34;;;;;;;1.55;1.50;;;;;;;2.60;94.20;101306.28;5085319;28;20025;-69
2022/12/18 09:58:29;;;;;;;0.50;0.50;;;;;;;2.60;93.76;101306.28;5085098;28;20107;-70
2022/12/18 10:00:55;;;;;;;0.50;0.50;;;;;;;2.54;93.61;101303.47;5085225;28;20419;-69
2022/12/18 10:03:21;;;;;;;0.50;0.50;;;;;;;2.53;93.44;101294.88;5085105;28;20032;-70
2022/12/18 10:06:12;;;;;;;0.85;0.85;;;;;;;2.52;93.56;101308.53;5085348;28;20021;-70
2022/12/18 10:08:45;;;;;;;0.50;0.50;;;;;;;2.52;93.79;101303.41;5085168;28;20027;-69
2022/12/18 10:11:32;;;;;;;0.50;0.50;;;;;;;2.50;93.49;101309.28;5084831;28;20033;-70
2022/12/18 10:14:03;;;;;;;0.57;0.57;;;;;;;2.43;93.65;101298.78;5083829;28;20084;-70
2022/12/18 10:16:53;;;;;;;0.60;0.60;;;;;;;2.46;93.58;101314.28;5085113;28;20465;-71
2022/12/18 10:19:27;;;;;;;0.50;0.50;;;;;;;2.48;93.81;101314.34;5085040;28;20031;-71
2022/12/18 10:22:14;;;;;;;0.50;0.50;;;;;;;2.47;93.85;101318.59;5083576;28;20048;-71
2022/12/18 10:24:55;;;;;;;0.50;0.50;;;;;;;2.45;93.61;101321.91;5084951;28;20403;-71
2022/12/18 10:27:26;;;;;;;0.50;0.50;;;;;;;2.48;93.67;101315.22;5085014;28;20017;-71
2022/12/18 10:29:52;;;;;;;0.47;0.47;;;;;;;2.51;94.04;101326.41;5088746;28;20021;-73
2022/12/18 10:32:30;;;;;;;0.50;0.50;;;;;;;2.53;93.80;101322.22;5088604;28;20035;-70
2022/12/18 10:34:57;;;;;;;0.50;0.50;;;;;;;2.54;93.63;101331.66;5088474;28;20028;-72
2022/12/18 10:37:27;;;;;;;0.50;0.50;;;;;;;2.53;93.48;101335.91;5088412;28;20027;-72
2022/12/18 10:40:14;;;;;;;0.50;0.50;;;;;;;2.54;93.49;101327.41;5088817;28;20024;-73
2022/12/18 10:42:41;;;;;;;0.50;0.50;;;;;;;2.52;93.56;101328.16;5086783;28;20029;-71
2022/12/18 10:45:19;;;;;;;0.50;0.50;;;;;;;2.58;93.36;101343.78;5088397;28;20468;-73
2022/12/18 10:47:48;;;;;;;2.55;2.35;;;;;;;2.58;93.21;101336.09;5088227;28;20385;-72
2022/12/18 10:50:29;;;;;;;0.50;0.50;;;;;;;2.64;93.29;101344.03;5088571;28;20037;-72
2022/12/18 10:53:00;;;;;;;0.50;0.50;;;;;;;2.66;93.31;101349.22;5088263;28;20200;-74
2022/12/18 10:55:34;;;;;;;0.50;0.50;;;;;;;2.72;93.00;101360.59;5088237;28;20043;-73
2022/12/18 10:58:26;;;;;;;3.35;3.15;;;;;;;2.77;92.96;101354.75;5088120;28;20016;-70
2022/12/18 11:01:12;;;;;;;0.55;0.55;;;;;;;2.80;92.83;101360.00;5086903;28;20064;-71
2022/12/18 11:03:45;;;;;;;0.55;0.55;;;;;;;2.84;92.74;101356.75;5086705;28;20519;-70
2022/12/18 11:06:12;;;;;;;0.50;0.50;;;;;;;2.85;92.78;101373.88;5088012;28;20024;-74
2022/12/18 11:08:38;;;;;;;0.40;0.40;;;;;;;2.85;93.05;101353.38;5088043;28;20392;-72
2022/12/18 11:11:07;;;;;;;0.47;0.47;;;;;;;2.92;92.76;101357.94;5086254;28;20020;-71
2022/12/18 11:13:33;;;;;;;0.50;0.50;;;;;;;3.05;92.84;101348.13;5087951;28;20027;-72
2022/12/18 11:15:59;;;;;;;0.50;0.50;;;;;;;3.13;92.96;101344.16;5087949;28;20028;-74
2022/12/18 11:18:35;;;;;;;0.57;0.57;;;;;;;3.20;92.69;101356.41;5087832;28;20028;-72
2022/12/18 11:21:09;;;;;;;0.52;0.52;;;;;;;3.19;92.39;101362.38;5087701;28;20031;-70
2022/12/18 11:23:37;;;;;;;0.60;0.60;;;;;;;3.13;92.60;101359.53;5087504;28;20400;-73
2022/12/18 11:26:05;;;;;;;0.50;0.50;;;;;;;3.08;91.95;101366.22;5086195;28;20031;-71
2022/12/18 11:28:49;;;;;;;0.60;0.60;;;;;;;3.03;91.87;101377.97;5087740;28;20059;-70
2022/12/18 11:31:21;;;;;;;0.50;0.50;;;;;;;2.95;91.64;101370.00;5086137;28;20077;-70
2022/12/18 11:34:00;;;;;;;0.60;0.60;;;;;;;2.93;91.92;101371.63;5087531;28;20025;-72
2022/12/18 11:36:31;;;;;;;0.50;0.50;;;;;;;2.91;92.02;101381.81;5087568;28;20030;-73
2022/12/18 11:39:03;;;;;;;0.50;0.50;;;;;;;2.90;92.15;101381.75;5087040;28;20091;-71
2022/12/18 11:42:09;;;;;;;0.40;0.40;;;;;;;2.90;92.22;101380.09;5085581;28;20068;-70
2022/12/18 11:44:51;;;;;;;0.50;0.50;;;;;;;2.85;92.18;101379.03;5086614;28;20032;-71
2022/12/18 11:47:22;;;;;;;0.60;0.60;;;;;;;2.85;92.39;101385.03;5087248;28;20021;-71
2022/12/18 11:49:50;;;;;;;0.60;0.60;;;;;;;2.88;92.50;101386.84;5087335;28;20025;-71
2022/12/18 11:52:23;;;;;;;0.50;0.50;;;;;;;2.92;92.84;101380.13;5087179;28;20031;-71